RYR7HM LIPQ-LKPR
Flight info
| Callsign | RYR7HM |
|---|---|
| Flight time | 0h 50m |
| Altitude | 33000 |
| Route | RIFEN DCT LIMRA/N0430F340 DCT BUDWA/N0423F330 DCT APRAQ |
| Aircraft | B738/M-SDE2E3FGHIRWXY/LB1 |
Departure
| Time | 2026-05-08 14:37 |
|---|---|
| Airport | Trieste Airport (LIPQ) |
Arrival
| Time | 2026-05-08 15:28 |
|---|---|
| Airport | Václav Havel Airport Prague (LKPR) |
| Time | Latitude | Longitude | Altitude | Speed | Heading |
|---|---|---|---|---|---|
| 2026-05-08 14:19 | 45.82196 | 13.48275 | 32 ft | 0 kts | 56° |
| 2026-05-08 14:29 | 45.82199 | 13.48280 | 32 ft | 1 kts | 42° |
| 2026-05-08 14:30 | 45.82223 | 13.48273 | 32 ft | 5 kts | 323° |
| 2026-05-08 14:30 | 45.82251 | 13.48289 | 32 ft | 7 kts | 62° |
| 2026-05-08 14:30 | 45.82269 | 13.48396 | 33 ft | 12 kts | 81° |
| 2026-05-08 14:30 | 45.82283 | 13.48512 | 33 ft | 11 kts | 77° |
| 2026-05-08 14:31 | 45.82313 | 13.48573 | 34 ft | 5 kts | 10° |
| 2026-05-08 14:31 | 45.82354 | 13.48573 | 34 ft | 8 kts | 359° |
| 2026-05-08 14:31 | 45.82454 | 13.48573 | 34 ft | 16 kts | 359° |
| 2026-05-08 14:32 | 45.82656 | 13.48575 | 34 ft | 2 kts | 2° |
| 2026-05-08 14:32 | 45.82657 | 13.48575 | 34 ft | 0 kts | 2° |
| 2026-05-08 14:35 | 45.82681 | 13.48576 | 34 ft | 10 kts | 1° |
| 2026-05-08 14:35 | 45.82753 | 13.48575 | 36 ft | 9 kts | 356° |
| 2026-05-08 14:35 | 45.82778 | 13.48529 | 36 ft | 2 kts | 272° |
| 2026-05-08 14:36 | 45.82778 | 13.48525 | 36 ft | 0 kts | 272° |
| 2026-05-08 14:36 | 45.82780 | 13.48283 | 36 ft | 58 kts | 270° |
| 2026-05-08 14:36 | 45.82784 | 13.47400 | 37 ft | 118 kts | 270° |
| 2026-05-08 14:36 | 45.82788 | 13.45970 | 41 ft | 165 kts | 271° |
| 2026-05-08 14:37 | 45.82801 | 13.44311 | 604 ft | 164 kts | 271° |
| 2026-05-08 14:37 | 45.82821 | 13.42674 | 1156 ft | 171 kts | 271° |
| 2026-05-08 14:37 | 45.82830 | 13.40939 | 1631 ft | 182 kts | 270° |
| 2026-05-08 14:37 | 45.82824 | 13.38992 | 1860 ft | 206 kts | 270° |
| 2026-05-08 14:38 | 45.82826 | 13.36848 | 2180 ft | 226 kts | 270° |
| 2026-05-08 14:38 | 45.82834 | 13.34510 | 2536 ft | 246 kts | 270° |
| 2026-05-08 14:38 | 45.82845 | 13.31949 | 2952 ft | 263 kts | 270° |
| 2026-05-08 14:38 | 45.82909 | 13.29318 | 3560 ft | 269 kts | 278° |
| 2026-05-08 14:39 | 45.83477 | 13.26767 | 4256 ft | 272 kts | 300° |
| 2026-05-08 14:39 | 45.84642 | 13.24637 | 4962 ft | 274 kts | 318° |
| 2026-05-08 14:39 | 45.86189 | 13.23099 | 5663 ft | 275 kts | 334° |
| 2026-05-08 14:39 | 45.87974 | 13.22150 | 6363 ft | 278 kts | 347° |
| 2026-05-08 14:40 | 45.89887 | 13.21838 | 7046 ft | 280 kts | 3° |
| 2026-05-08 14:40 | 45.91793 | 13.22419 | 7737 ft | 283 kts | 22° |
| 2026-05-08 14:40 | 45.93476 | 13.23843 | 8430 ft | 287 kts | 39° |
| 2026-05-08 14:40 | 45.94836 | 13.25931 | 9175 ft | 289 kts | 54° |
| 2026-05-08 14:41 | 45.95785 | 13.28484 | 9851 ft | 294 kts | 71° |
| 2026-05-08 14:41 | 45.96146 | 13.31381 | 10401 ft | 303 kts | 89° |
| 2026-05-08 14:41 | 45.95838 | 13.34459 | 10584 ft | 326 kts | 108° |
| 2026-05-08 14:41 | 45.94860 | 13.37496 | 10968 ft | 341 kts | 120° |
| 2026-05-08 14:42 | 45.93558 | 13.40386 | 11533 ft | 350 kts | 124° |
| 2026-05-08 14:42 | 45.92215 | 13.43309 | 12219 ft | 355 kts | 119° |
| 2026-05-08 14:42 | 45.91297 | 13.46596 | 12985 ft | 358 kts | 102° |
| 2026-05-08 14:42 | 45.91138 | 13.50144 | 13763 ft | 361 kts | 84° |
| 2026-05-08 14:43 | 45.91676 | 13.53641 | 14560 ft | 363 kts | 70° |
| 2026-05-08 14:43 | 45.92766 | 13.56944 | 15275 ft | 368 kts | 58° |
| 2026-05-08 14:43 | 45.94282 | 13.59898 | 16005 ft | 372 kts | 48° |
| 2026-05-08 14:43 | 45.96119 | 13.62518 | 16731 ft | 376 kts | 38° |
| 2026-05-08 14:44 | 45.98341 | 13.64501 | 17437 ft | 379 kts | 22° |
| 2026-05-08 14:44 | 46.00732 | 13.65732 | 18104 ft | 381 kts | 15° |
| 2026-05-08 14:44 | 46.03313 | 13.66702 | 18713 ft | 386 kts | 13° |
| 2026-05-08 14:44 | 46.05922 | 13.67577 | 19315 ft | 391 kts | 12° |
| 2026-05-08 14:45 | 46.08604 | 13.68510 | 19912 ft | 395 kts | 13° |
| 2026-05-08 14:45 | 46.11276 | 13.69477 | 20269 ft | 398 kts | 13° |
| 2026-05-08 14:45 | 46.13964 | 13.70507 | 20791 ft | 398 kts | 14° |
| 2026-05-08 14:45 | 46.16621 | 13.71577 | 21240 ft | 406 kts | 14° |
| 2026-05-08 14:46 | 46.19381 | 13.72707 | 21753 ft | 411 kts | 14° |
| 2026-05-08 14:46 | 46.22110 | 13.73828 | 22319 ft | 414 kts | 14° |
| 2026-05-08 14:46 | 46.24934 | 13.74987 | 22767 ft | 421 kts | 14° |
| 2026-05-08 14:46 | 46.27727 | 13.76131 | 23325 ft | 423 kts | 14° |
| 2026-05-08 14:47 | 46.30560 | 13.77290 | 23862 ft | 427 kts | 14° |
| 2026-05-08 14:47 | 46.33441 | 13.78467 | 24435 ft | 429 kts | 14° |
| 2026-05-08 14:47 | 46.36333 | 13.79648 | 24854 ft | 435 kts | 14° |
| 2026-05-08 14:47 | 46.39293 | 13.80855 | 25340 ft | 439 kts | 14° |
| 2026-05-08 14:48 | 46.42233 | 13.82060 | 25862 ft | 441 kts | 14° |
| 2026-05-08 14:48 | 46.45175 | 13.83257 | 26251 ft | 446 kts | 13° |
| 2026-05-08 14:48 | 46.48174 | 13.84482 | 26689 ft | 449 kts | 14° |
| 2026-05-08 14:48 | 46.51205 | 13.85699 | 27280 ft | 449 kts | 13° |
| 2026-05-08 14:49 | 46.54250 | 13.86934 | 27720 ft | 452 kts | 13° |
| 2026-05-08 14:49 | 46.57285 | 13.88169 | 27996 ft | 458 kts | 13° |
| 2026-05-08 14:49 | 46.60412 | 13.89451 | 28328 ft | 464 kts | 14° |
| 2026-05-08 14:49 | 46.63537 | 13.90756 | 28746 ft | 467 kts | 13° |
| 2026-05-08 14:50 | 46.66658 | 13.92070 | 29164 ft | 469 kts | 13° |
| 2026-05-08 14:50 | 46.69809 | 13.93383 | 29624 ft | 470 kts | 13° |
| 2026-05-08 14:50 | 46.72922 | 13.94664 | 30103 ft | 471 kts | 13° |
| 2026-05-08 14:50 | 46.76090 | 13.95975 | 30702 ft | 469 kts | 13° |
| 2026-05-08 14:51 | 46.79186 | 13.97259 | 31437 ft | 463 kts | 13° |
| 2026-05-08 14:51 | 46.82265 | 13.98546 | 32158 ft | 458 kts | 13° |
| 2026-05-08 14:51 | 46.85309 | 13.99820 | 32801 ft | 454 kts | 13° |
| 2026-05-08 14:51 | 46.88334 | 14.01085 | 33046 ft | 457 kts | 13° |
| 2026-05-08 14:52 | 46.97550 | 14.04946 | 33085 ft | 458 kts | 13° |
| 2026-05-08 14:53 | 47.03683 | 14.07526 | 33078 ft | 456 kts | 12° |
| 2026-05-08 14:53 | 47.09810 | 14.10081 | 33072 ft | 457 kts | 12° |
| 2026-05-08 14:54 | 47.15916 | 14.12642 | 33061 ft | 457 kts | 12° |
| 2026-05-08 14:54 | 47.22046 | 14.15224 | 33058 ft | 458 kts | 12° |
| 2026-05-08 14:55 | 47.28150 | 14.17800 | 33058 ft | 459 kts | 12° |
| 2026-05-08 14:55 | 47.34307 | 14.20403 | 33059 ft | 459 kts | 12° |
| 2026-05-08 14:56 | 47.40421 | 14.22997 | 33054 ft | 458 kts | 12° |
| 2026-05-08 14:56 | 47.46543 | 14.25603 | 33053 ft | 458 kts | 12° |
| 2026-05-08 14:57 | 47.52669 | 14.28212 | 33047 ft | 459 kts | 12° |
| 2026-05-08 14:57 | 47.58802 | 14.30834 | 33045 ft | 458 kts | 12° |
| 2026-05-08 14:58 | 47.64927 | 14.33458 | 33037 ft | 459 kts | 11° |
| 2026-05-08 14:58 | 47.71070 | 14.36096 | 33033 ft | 460 kts | 11° |
| 2026-05-08 14:59 | 47.77175 | 14.38727 | 33030 ft | 459 kts | 11° |
| 2026-05-08 14:59 | 47.86395 | 14.42659 | 33025 ft | 458 kts | 9° |
| 2026-05-08 15:00 | 47.92638 | 14.43599 | 33026 ft | 443 kts | 346° |
| 2026-05-08 15:00 | 47.95587 | 14.42630 | 33034 ft | 434 kts | 335° |
| 2026-05-08 15:00 | 47.98410 | 14.41095 | 33017 ft | 429 kts | 330° |
| 2026-05-08 15:01 | 48.03869 | 14.37673 | 33028 ft | 426 kts | 330° |
| 2026-05-08 15:01 | 48.09378 | 14.34286 | 33022 ft | 428 kts | 331° |
| 2026-05-08 15:02 | 48.14916 | 14.31004 | 33030 ft | 427 kts | 331° |
| 2026-05-08 15:02 | 48.20611 | 14.28297 | 33041 ft | 436 kts | 342° |
| 2026-05-08 15:03 | 48.26704 | 14.27398 | 33043 ft | 444 kts | 351° |
| 2026-05-08 15:03 | 48.32868 | 14.27083 | 33043 ft | 444 kts | 351° |
| 2026-05-08 15:04 | 48.39016 | 14.26652 | 33059 ft | 441 kts | 349° |
| 2026-05-08 15:04 | 48.45104 | 14.26076 | 33046 ft | 442 kts | 349° |
| 2026-05-08 15:05 | 48.51277 | 14.25413 | 33044 ft | 441 kts | 349° |
| 2026-05-08 15:05 | 48.57382 | 14.24732 | 33051 ft | 439 kts | 348° |
| 2026-05-08 15:06 | 48.63369 | 14.24065 | 32700 ft | 426 kts | 348° |
| 2026-05-08 15:06 | 48.66325 | 14.23737 | 32394 ft | 419 kts | 348° |
| 2026-05-08 15:06 | 48.69206 | 14.23413 | 31958 ft | 416 kts | 348° |
| 2026-05-08 15:07 | 48.72059 | 14.23086 | 31474 ft | 415 kts | 348° |
| 2026-05-08 15:07 | 48.74948 | 14.22752 | 30964 ft | 413 kts | 348° |
| 2026-05-08 15:07 | 48.77794 | 14.22421 | 30468 ft | 412 kts | 348° |
| 2026-05-08 15:07 | 48.80614 | 14.22093 | 29974 ft | 410 kts | 348° |
| 2026-05-08 15:08 | 48.83477 | 14.21762 | 29450 ft | 409 kts | 348° |
| 2026-05-08 15:08 | 48.85344 | 14.21545 | 29119 ft | 408 kts | 348° |
| 2026-05-08 15:08 | 48.89103 | 14.21110 | 28442 ft | 406 kts | 349° |
| 2026-05-08 15:08 | 48.91927 | 14.20784 | 27946 ft | 404 kts | 349° |
| 2026-05-08 15:09 | 48.94698 | 14.20464 | 27440 ft | 401 kts | 350° |
| 2026-05-08 15:09 | 48.97468 | 14.20145 | 26950 ft | 399 kts | 350° |
| 2026-05-08 15:09 | 49.00225 | 14.19827 | 26442 ft | 396 kts | 350° |
| 2026-05-08 15:09 | 49.02963 | 14.19510 | 25958 ft | 393 kts | 351° |
| 2026-05-08 15:10 | 49.05687 | 14.19194 | 25461 ft | 390 kts | 351° |
| 2026-05-08 15:10 | 49.08352 | 14.18885 | 24978 ft | 388 kts | 351° |
| 2026-05-08 15:10 | 49.10963 | 14.18581 | 24505 ft | 384 kts | 351° |
| 2026-05-08 15:10 | 49.13524 | 14.18284 | 24035 ft | 381 kts | 352° |
| 2026-05-08 15:11 | 49.16163 | 14.17993 | 23651 ft | 376 kts | 354° |
| 2026-05-08 15:11 | 49.18735 | 14.18195 | 23526 ft | 368 kts | 8° |
| 2026-05-08 15:11 | 49.21122 | 14.19496 | 23341 ft | 361 kts | 23° |
| 2026-05-08 15:11 | 49.23271 | 14.21362 | 23082 ft | 347 kts | 29° |
| 2026-05-08 15:12 | 49.25251 | 14.23294 | 22961 ft | 329 kts | 29° |
| 2026-05-08 15:12 | 49.27157 | 14.25132 | 22767 ft | 315 kts | 28° |
| 2026-05-08 15:12 | 49.29074 | 14.26914 | 20646 ft | 364 kts | 27° |
| 2026-05-08 15:12 | 49.31355 | 14.28935 | 17853 ft | 411 kts | 27° |
| 2026-05-08 15:13 | 49.33779 | 14.31026 | 17662 ft | 381 kts | 27° |
| 2026-05-08 15:13 | 49.35869 | 14.32844 | 18694 ft | 323 kts | 27° |
| 2026-05-08 15:13 | 49.37771 | 14.34528 | 18023 ft | 326 kts | 27° |
| 2026-05-08 15:13 | 49.39809 | 14.36316 | 15875 ft | 368 kts | 25° |
| 2026-05-08 15:14 | 49.42139 | 14.37907 | 14857 ft | 365 kts | 18° |
| 2026-05-08 15:14 | 49.44440 | 14.39051 | 14950 ft | 331 kts | 12° |
| 2026-05-08 15:14 | 49.46620 | 14.39832 | 14616 ft | 319 kts | 6° |
| 2026-05-08 15:14 | 49.48824 | 14.40215 | 14071 ft | 310 kts | 360° |
| 2026-05-08 15:15 | 49.50839 | 14.40121 | 14231 ft | 281 kts | 352° |
| 2026-05-08 15:15 | 49.52836 | 14.39772 | 12842 ft | 311 kts | 348° |
| 2026-05-08 15:15 | 49.54943 | 14.38890 | 11523 ft | 325 kts | 335° |
| 2026-05-08 15:15 | 49.56934 | 14.37326 | 10770 ft | 320 kts | 325° |
| 2026-05-08 15:16 | 49.58705 | 14.35376 | 10249 ft | 309 kts | 320° |
| 2026-05-08 15:16 | 49.60321 | 14.33294 | 9740 ft | 300 kts | 315° |
| 2026-05-08 15:16 | 49.61978 | 14.31399 | 9377 ft | 290 kts | 330° |
| 2026-05-08 15:16 | 49.63714 | 14.29857 | 8885 ft | 280 kts | 324° |
| 2026-05-08 15:17 | 49.65166 | 14.28205 | 9091 ft | 250 kts | 320° |
| 2026-05-08 15:17 | 49.66488 | 14.26539 | 8814 ft | 241 kts | 317° |
| 2026-05-08 15:17 | 49.67754 | 14.24813 | 8139 ft | 251 kts | 316° |
| 2026-05-08 15:17 | 49.69228 | 14.23422 | 7752 ft | 246 kts | 346° |
| 2026-05-08 15:18 | 49.70894 | 14.23370 | 7314 ft | 248 kts | 10° |
| 2026-05-08 15:18 | 49.72530 | 14.24259 | 6807 ft | 250 kts | 25° |
| 2026-05-08 15:18 | 49.74052 | 14.25546 | 6447 ft | 243 kts | 29° |
| 2026-05-08 15:18 | 49.75453 | 14.26824 | 6274 ft | 232 kts | 30° |
| 2026-05-08 15:19 | 49.76825 | 14.28099 | 5897 ft | 229 kts | 30° |
| 2026-05-08 15:19 | 49.78171 | 14.29355 | 5591 ft | 224 kts | 30° |
| 2026-05-08 15:19 | 49.79538 | 14.30564 | 5127 ft | 226 kts | 28° |
| 2026-05-08 15:19 | 49.80856 | 14.31682 | 5097 ft | 208 kts | 28° |
| 2026-05-08 15:20 | 49.82110 | 14.32793 | 4764 ft | 207 kts | 30° |
| 2026-05-08 15:20 | 49.83360 | 14.33924 | 4363 ft | 207 kts | 30° |
| 2026-05-08 15:20 | 49.84495 | 14.34964 | 4364 ft | 172 kts | 31° |
| 2026-05-08 15:20 | 49.85441 | 14.35869 | 4252 ft | 149 kts | 32° |
| 2026-05-08 15:21 | 49.86338 | 14.36654 | 3802 ft | 151 kts | 21° |
| 2026-05-08 15:21 | 49.87376 | 14.37013 | 3303 ft | 153 kts | 5° |
| 2026-05-08 15:21 | 49.88407 | 14.36998 | 3023 ft | 144 kts | 358° |
| 2026-05-08 15:21 | 49.89412 | 14.36923 | 2732 ft | 145 kts | 359° |
| 2026-05-08 15:22 | 49.90462 | 14.36895 | 2664 ft | 155 kts | 360° |
| 2026-05-08 15:22 | 49.91521 | 14.36906 | 2834 ft | 152 kts | 2° |
| 2026-05-08 15:22 | 49.92600 | 14.36941 | 2964 ft | 152 kts | 2° |
| 2026-05-08 15:22 | 49.93651 | 14.36998 | 2991 ft | 148 kts | 2° |
| 2026-05-08 15:23 | 49.94665 | 14.37018 | 2925 ft | 147 kts | 1° |
| 2026-05-08 15:23 | 49.95697 | 14.37002 | 2886 ft | 147 kts | 1° |
| 2026-05-08 15:23 | 49.96703 | 14.36978 | 2879 ft | 144 kts | 0° |
| 2026-05-08 15:23 | 49.97731 | 14.36956 | 2852 ft | 150 kts | 1° |
| 2026-05-08 15:24 | 49.98782 | 14.36974 | 2938 ft | 165 kts | 1° |
| 2026-05-08 15:24 | 49.99977 | 14.36994 | 3134 ft | 168 kts | 1° |
| 2026-05-08 15:24 | 50.01142 | 14.36851 | 3170 ft | 162 kts | 349° |
| 2026-05-08 15:24 | 50.02137 | 14.36408 | 3092 ft | 147 kts | 344° |
| 2026-05-08 15:25 | 50.03129 | 14.35949 | 2931 ft | 147 kts | 346° |
| 2026-05-08 15:25 | 50.04106 | 14.35566 | 2796 ft | 148 kts | 347° |
| 2026-05-08 15:25 | 50.05141 | 14.35155 | 2638 ft | 151 kts | 347° |
| 2026-05-08 15:25 | 50.06113 | 14.34616 | 2412 ft | 152 kts | 324° |
| 2026-05-08 15:26 | 50.06741 | 14.33298 | 2191 ft | 154 kts | 295° |
| 2026-05-08 15:26 | 50.07230 | 14.31889 | 1974 ft | 145 kts | 305° |
| 2026-05-08 15:26 | 50.07836 | 14.30627 | 1698 ft | 145 kts | 309° |
| 2026-05-08 15:26 | 50.08453 | 14.29373 | 1501 ft | 148 kts | 306° |
| 2026-05-08 15:27 | 50.09071 | 14.28109 | 1294 ft | 144 kts | 307° |
| 2026-05-08 15:27 | 50.09617 | 14.26987 | 1215 ft | 102 kts | 306° |
| 2026-05-08 15:27 | 50.09973 | 14.26253 | 1203 ft | 78 kts | 307° |
| 2026-05-08 15:27 | 50.10260 | 14.25710 | 1186 ft | 51 kts | 332° |
| 2026-05-08 15:28 | 50.10417 | 14.25660 | 1180 ft | 0 kts | 3° |
| 2026-05-08 15:28 | 50.10422 | 14.25660 | 1180 ft | 0 kts | 3° |
| 2026-05-08 15:28 | 50.10438 | 14.25661 | 1179 ft | 7 kts | 3° |
| 2026-05-08 15:29 | 50.10533 | 14.25717 | 1176 ft | 15 kts | 29° |
| 2026-05-08 15:29 | 50.10693 | 14.25883 | 1173 ft | 39 kts | 33° |
| 2026-05-08 15:29 | 50.10855 | 14.26056 | 1167 ft | 16 kts | 34° |
| 2026-05-08 15:29 | 50.10887 | 14.26091 | 1166 ft | 3 kts | 34° |
| 2026-05-08 15:30 | 50.10927 | 14.26134 | 1165 ft | 8 kts | 35° |
| 2026-05-08 15:30 | 50.10935 | 14.26199 | 1166 ft | 5 kts | 118° |
| 2026-05-08 15:30 | 50.10921 | 14.26228 | 1166 ft | 2 kts | 125° |
| 2026-05-08 15:30 | 50.10916 | 14.26240 | 1167 ft | 0 kts | 124° |
| 2026-05-08 15:31 | 50.10911 | 14.26252 | 1167 ft | 1 kts | 124° |
| 2026-05-08 15:31 | 50.10910 | 14.26253 | 1167 ft | 0 kts | 124° |